Terminal Aerodrome Forecast
Issued by NWS

Home | Current Version | Previous Version | Graphics & Text | Print | Product List | Glossary On
Versions: 1 2 3 4 5 6 7 8 9 10 11 12 13 14 15
365
FTUS43 KMPX 161023 AAA
TAFAXN
TAF AMD
KAXN 161023Z 1610/1706 19007KT 4SM BR SCT250
      TEMPO 1610/1613 1 1/2SM BR
     FM161500 19004KT P6SM SCT070 BKN120
     FM162200 VRB03KT P6SM SCT040 BKN100
     FM170200 34003KT P6SM SCT100 BKN250=

USA.gov is the U.S. government's official web portal to all federal, state and local government web resources and services.